createdAt,value
2016-02-18T00:00:51.154Z,0
2016-02-18T00:01:29.594Z,0
2016-02-18T00:02:16.863Z,0
2016-02-18T00:04:07.365Z,0
2016-02-18T00:04:42.169Z,0
2016-02-18T00:06:16.924Z,0
2016-02-18T00:07:26.302Z,0
2016-02-18T00:08:35.648Z,0
2016-02-18T00:10:10.292Z,0
2016-02-18T00:11:54.548Z,0
2016-02-18T00:14:51.759Z,0
2016-02-18T00:17:19.704Z,0
2016-02-18T00:17:32.361Z,0
2016-02-18T00:19:34.927Z,0
2016-02-18T00:19:47.521Z,0
2016-02-18T00:20:47.728Z,0
2016-02-18T00:22:00.105Z,0
2016-02-18T00:23:00.264Z,0
2016-02-18T00:24:06.797Z,0
2016-02-18T00:25:06.800Z,0
2016-02-18T00:27:09.946Z,0
2016-02-18T00:28:09.918Z,0
2016-02-18T00:29:17.829Z,0
2016-02-18T00:30:11.345Z,0
2016-02-18T00:31:55.632Z,0
2016-02-18T00:32:14.479Z,0
2016-02-18T00:33:08.197Z,0
2016-02-18T00:34:21.109Z,0
2016-02-18T00:35:14.565Z,0
2016-02-18T00:36:27.442Z,0
2016-02-18T00:37:21.075Z,0
2016-02-18T00:39:24.455Z,0
2016-02-18T00:40:33.973Z,0
2016-02-18T00:40:46.536Z,0
2016-02-18T00:43:01.760Z,0
2016-02-18T00:44:01.748Z,0
2016-02-18T00:45:02.500Z,0
2016-02-18T00:46:02.581Z,0
2016-02-18T00:47:08.052Z,0
2016-02-18T00:48:03.867Z,0
2016-02-18T00:49:14.591Z,0
2016-02-18T00:50:14.594Z,0
2016-02-18T00:51:21.143Z,0
2016-02-18T00:53:18.041Z,0
2016-02-18T00:54:27.652Z,0
2016-02-18T00:54:40.261Z,0
2016-02-18T00:55:40.233Z,0
2016-02-18T00:56:40.282Z,0
2016-02-18T00:57:46.519Z,0
2016-02-18T00:58:53.021Z,0
2016-02-18T00:59:53.102Z,0
2016-02-18T01:00:53.027Z,0
2016-02-18T01:01:53.155Z,0
2016-02-18T01:02:53.485Z,0
2016-02-18T01:03:59.536Z,0
2016-02-18T01:04:59.570Z,0
2016-02-18T01:07:02.673Z,0
2016-02-18T01:08:09.207Z,0
2016-02-18T01:10:12.572Z,0
2016-02-18T01:10:56.465Z,0
2016-02-18T01:12:27.783Z,0
2016-02-18T01:13:06.017Z,0
2016-02-18T01:13:40.380Z,0
2016-02-18T01:15:38.775Z,0
2016-02-18T01:15:51.322Z,0
2016-02-18T01:17:52.828Z,0
2016-02-18T01:18:51.441Z,0
2016-02-18T01:20:00.677Z,0
2016-02-18T01:20:52.836Z,0
2016-02-18T01:21:51.417Z,0
2016-02-18T01:23:10.810Z,0
2016-02-18T01:24:04.204Z,0
2016-02-18T01:25:17.115Z,0
2016-02-18T01:26:10.724Z,0
2016-02-18T01:27:48.510Z,0
2016-02-18T01:28:13.792Z,0
2016-02-18T01:29:58.063Z,0
2016-02-18T01:30:16.879Z,0
2016-02-18T01:31:42.068Z,0
2016-02-18T01:32:23.399Z,0
2016-02-18T01:33:42.620Z,0
2016-02-18T01:35:20.486Z,0
2016-02-18T01:35:52.236Z,0
2016-02-18T01:37:17.100Z,0
2016-02-18T01:37:52.537Z,0
2016-02-18T01:38:34.494Z,0
2016-02-18T01:40:30.093Z,0
2016-02-18T01:40:42.687Z,0
2016-02-18T01:42:52.270Z,0
2016-02-18T01:44:58.401Z,0
2016-02-18T01:46:14.481Z,0
2016-02-18T01:47:08.108Z,0
2016-02-18T01:48:26.708Z,0
2016-02-18T01:48:58.458Z,0
2016-02-18T01:50:26.730Z,0
2016-02-18T01:51:08.214Z,0
2016-02-18T01:51:55.482Z,0
2016-02-18T01:53:14.782Z,0
2016-02-18T01:53:56.987Z,0
2016-02-18T01:55:08.256Z,0
2016-02-18T01:55:58.524Z,0
2016-02-18T01:57:14.573Z,0
2016-02-18T01:58:08.263Z,0
2016-02-18T02:00:11.737Z,0
2016-02-18T02:00:55.474Z,0
2016-02-18T02:01:30.522Z,0
2016-02-18T02:02:24.278Z,0
2016-02-18T02:03:30.487Z,0
2016-02-18T02:04:30.444Z,0
2016-02-18T02:05:43.357Z,0
2016-02-18T02:06:36.911Z,0
2016-02-18T02:08:40.377Z,0
2016-02-18T02:08:52.908Z,0
2016-02-18T02:10:55.544Z,0
2016-02-18T02:11:33.808Z,0
2016-02-18T02:12:08.246Z,0
2016-02-18T02:14:10.733Z,0
2016-02-18T02:14:42.484Z,0
2016-02-18T02:15:23.329Z,0
2016-02-18T02:16:29.628Z,0
2016-02-18T02:17:23.425Z,0
2016-02-18T02:18:36.085Z,0
2016-02-18T02:19:29.633Z,0
2016-02-18T02:20:42.541Z,0
2016-02-18T02:21:36.121Z,0
2016-02-18T02:23:20.390Z,0
2016-02-18T02:23:51.986Z,0
2016-02-18T02:24:58.660Z,0
2016-02-18T02:26:04.304Z,0
2016-02-18T02:26:33.026Z,0
2016-02-18T02:28:35.640Z,0
2016-02-18T02:28:48.218Z,0
2016-02-18T02:29:48.205Z,0
2016-02-18T02:30:48.426Z,0
2016-02-18T02:32:00.992Z,0
2016-02-18T02:32:48.651Z,0
2016-02-18T02:34:07.544Z,0
2016-02-18T02:34:54.657Z,0
2016-02-18T02:36:57.818Z,0
2016-02-18T02:37:57.836Z,0
2016-02-18T02:38:57.839Z,0
2016-02-18T02:40:10.686Z,0
2016-02-18T02:40:57.860Z,0
2016-02-18T02:43:01.084Z,0
2016-02-18T02:44:20.321Z,0
2016-02-18T02:45:01.277Z,0
2016-02-18T02:46:01.092Z,0
2016-02-18T02:47:07.344Z,0
2016-02-18T02:48:01.707Z,0
2016-02-18T02:49:01.850Z,0
2016-02-18T02:50:01.088Z,0
2016-02-18T02:51:07.418Z,0
2016-02-18T02:52:13.889Z,0
2016-02-18T02:53:20.360Z,0
2016-02-18T02:54:01.160Z,0
2016-02-18T02:55:32.479Z,0
2016-02-18T02:56:01.354Z,0
2016-02-18T02:57:01.200Z,0
2016-02-18T02:58:07.593Z,0
2016-02-18T02:59:01.424Z,0
2016-02-18T03:00:51.743Z,0
2016-02-18T03:01:04.305Z,0
2016-02-18T03:03:32.954Z,0
2016-02-18T03:04:33.096Z,0
2016-02-18T03:05:38.756Z,0
2016-02-18T03:06:38.790Z,0
2016-02-18T03:07:08.852Z,0
2016-02-18T03:08:07.449Z,0
2016-02-18T03:09:10.639Z,0
2016-02-18T03:10:13.735Z,0
2016-02-18T03:11:21.645Z,0
2016-02-18T03:12:20.490Z,0
2016-02-18T03:13:26.742Z,0
2016-02-18T03:14:26.745Z,0
2016-02-18T03:15:38.845Z,0
2016-02-18T03:16:33.238Z,0
2016-02-18T03:17:07.644Z,0
2016-02-18T03:18:33.618Z,0
2016-02-18T03:19:20.321Z,0
2016-02-18T03:21:29.030Z,0
2016-02-18T03:23:51.710Z,0
2016-02-18T03:24:35.588Z,0
2016-02-18T03:25:04.416Z,0
2016-02-18T03:26:04.372Z,0
2016-02-18T03:27:04.327Z,0
2016-02-18T03:28:04.736Z,0
2016-02-18T03:29:04.521Z,0
2016-02-18T03:30:04.336Z,0
2016-02-18T03:31:10.636Z,0
2016-02-18T03:32:04.810Z,0
2016-02-18T03:33:05.016Z,0
2016-02-18T03:34:05.832Z,0
2016-02-18T03:35:10.505Z,0
2016-02-18T03:36:04.399Z,0
2016-02-18T03:37:17.183Z,0
2016-02-18T03:38:10.670Z,0
2016-02-18T03:39:23.641Z,0
2016-02-18T03:40:17.160Z,0
2016-02-18T03:41:30.147Z,0
2016-02-18T03:42:17.228Z,0
2016-02-18T03:44:07.108Z,0
2016-02-18T03:44:38.861Z,0
2016-02-18T03:45:19.595Z,0
2016-02-18T03:47:22.320Z,0
2016-02-18T03:47:34.898Z,0
2016-02-18T03:48:34.900Z,0
2016-02-18T03:49:34.903Z,0
2016-02-18T03:50:35.655Z,0
2016-02-18T03:51:47.691Z,0
2016-02-18T03:52:34.988Z,0
2016-02-18T03:53:54.150Z,0
2016-02-18T03:54:47.700Z,0
2016-02-18T03:56:00.687Z,0
2016-02-18T03:56:54.205Z,0
2016-02-18T03:58:06.380Z,0
2016-02-18T03:58:35.036Z,0
2016-02-18T03:59:35.023Z,0
2016-02-18T04:00:47.810Z,0
2016-02-18T04:01:35.122Z,0
2016-02-18T04:03:44.834Z,0
2016-02-18T04:04:28.788Z,0
2016-02-18T04:05:03.727Z,0
2016-02-18T04:06:54.217Z,0
2016-02-18T04:07:06.811Z,0
2016-02-18T04:09:03.754Z,0
2016-02-18T04:09:16.457Z,0
2016-02-18T04:10:16.350Z,0
2016-02-18T04:11:22.619Z,0
2016-02-18T04:12:29.091Z,0
2016-02-18T04:13:29.124Z,0
2016-02-18T04:14:35.565Z,0
2016-02-18T04:15:35.629Z,0
2016-02-18T04:16:42.070Z,0
2016-02-18T04:18:38.247Z,0
2016-02-18T04:18:57.110Z,0
2016-02-18T04:20:53.440Z,0
2016-02-18T04:21:06.005Z,0
2016-02-18T04:22:06.023Z,0
2016-02-18T04:23:18.870Z,0
2016-02-18T04:24:06.856Z,0
2016-02-18T04:25:56.531Z,0
2016-02-18T04:26:28.112Z,0
2016-02-18T04:28:00.462Z,0
2016-02-18T04:28:13.009Z,0
2016-02-18T04:30:17.061Z,0
2016-02-18T04:30:55.342Z,0
2016-02-18T04:31:29.641Z,0
2016-02-18T04:33:20.755Z,0
2016-02-18T04:33:36.427Z,0
2016-02-18T04:35:30.403Z,0
2016-02-18T04:35:42.934Z,0
2016-02-18T04:37:55.564Z,0
2016-02-18T04:40:02.118Z,0
2016-02-18T04:41:21.308Z,0
2016-02-18T04:42:14.875Z,0
2016-02-18T04:43:27.860Z,0
2016-02-18T04:44:21.349Z,0
2016-02-18T04:46:05.432Z,0
2016-02-18T04:46:18.088Z,0
2016-02-18T04:48:46.827Z,0
2016-02-18T04:49:21.127Z,0
2016-02-18T04:50:21.114Z,0
2016-02-18T04:51:21.335Z,0
2016-02-18T04:52:33.885Z,0
2016-02-18T04:53:33.966Z,0
2016-02-18T04:54:40.454Z,0
2016-02-18T04:55:46.862Z,0
2016-02-18T04:56:46.896Z,0
2016-02-18T04:57:52.601Z,0
2016-02-18T04:58:46.933Z,0
2016-02-18T05:00:23.859Z,0
2016-02-18T05:01:02.098Z,0
2016-02-18T05:01:36.442Z,0
2016-02-18T05:03:42.009Z,0
2016-02-18T05:04:22.402Z,0
2016-02-18T05:04:54.841Z,0
2016-02-18T05:06:57.286Z,0
2016-02-18T05:07:09.881Z,0
2016-02-18T05:08:09.993Z,0
2016-02-18T05:09:09.886Z,0
2016-02-18T05:10:16.219Z,0
2016-02-18T05:11:16.236Z,0
2016-02-18T05:12:22.677Z,0
2016-02-18T05:13:09.930Z,0
2016-02-18T05:15:06.908Z,0
2016-02-18T05:15:19.471Z,0
2016-02-18T05:17:10.585Z,0
2016-02-18T05:17:26.179Z,0
2016-02-18T05:19:11.076Z,0
2016-02-18T05:19:23.591Z,0
2016-02-18T05:21:14.143Z,0
2016-02-18T05:21:26.752Z,0
2016-02-18T05:22:58.068Z,0
2016-02-18T05:23:32.961Z,0
2016-02-18T05:24:26.745Z,0
2016-02-18T05:25:26.778Z,0
2016-02-18T05:26:39.625Z,0
2016-02-18T05:27:26.768Z,0
2016-02-18T05:29:18.134Z,0
2016-02-18T05:29:30.681Z,0
2016-02-18T05:31:02.029Z,0
2016-02-18T05:31:37.014Z,0
2016-02-18T05:33:08.347Z,0
2016-02-18T05:33:49.956Z,0
2016-02-18T05:35:02.071Z,0
2016-02-18T05:35:43.493Z,0
2016-02-18T05:36:30.793Z,0
2016-02-18T05:37:49.999Z,0
2016-02-18T05:38:30.783Z,0
2016-02-18T05:39:56.519Z,0
2016-02-18T05:40:30.897Z,0
2016-02-18T05:42:33.449Z,0
2016-02-18T05:43:05.358Z,0
2016-02-18T05:43:46.140Z,0
2016-02-18T05:44:46.142Z,0
2016-02-18T05:45:46.207Z,0
2016-02-18T05:46:46.242Z,0
2016-02-18T05:47:58.932Z,0
2016-02-18T05:48:46.825Z,0
2016-02-18T05:50:05.815Z,0
2016-02-18T05:50:58.971Z,0
2016-02-18T05:51:46.270Z,0
2016-02-18T05:53:43.245Z,0
2016-02-18T05:54:52.888Z,0
2016-02-18T05:55:18.219Z,0
2016-02-18T05:56:05.503Z,0
2016-02-18T05:57:05.474Z,0
2016-02-18T05:58:05.492Z,0
2016-02-18T05:59:05.526Z,0
2016-02-18T06:00:05.498Z,0
2016-02-18T06:01:18.266Z,0
2016-02-18T06:02:11.848Z,0
2016-02-18T06:03:24.772Z,0
2016-02-18T06:04:18.415Z,0
2016-02-18T06:05:56.077Z,0
2016-02-18T06:06:08.737Z,0
2016-02-18T06:08:11.304Z,0
2016-02-18T06:08:23.945Z,0
2016-02-18T06:09:23.917Z,0
2016-02-18T06:10:23.934Z,0
2016-02-18T06:11:36.672Z,0
2016-02-18T06:12:30.207Z,0
2016-02-18T06:13:43.318Z,0
2016-02-18T06:14:36.806Z,0
2016-02-18T06:15:55.308Z,0
2016-02-18T06:16:38.201Z,0
2016-02-18T06:17:55.328Z,0
2016-02-18T06:18:43.253Z,0
2016-02-18T06:19:25.522Z,0
2016-02-18T06:21:21.028Z,0
2016-02-18T06:21:33.590Z,0
2016-02-18T06:23:23.376Z,0
2016-02-18T06:23:48.798Z,0
2016-02-18T06:24:35.972Z,0
2016-02-18T06:25:55.194Z,0
2016-02-18T06:26:35.977Z,0
2016-02-18T06:28:33.031Z,0
2016-02-18T06:28:45.578Z,0
2016-02-18T06:30:42.599Z,0
2016-02-18T06:33:07.918Z,0
2016-02-18T06:34:07.985Z,0
2016-02-18T06:35:07.940Z,0
2016-02-18T06:36:14.318Z,0
2016-02-18T06:37:08.196Z,0
2016-02-18T06:38:27.183Z,0
2016-02-18T06:39:07.982Z,0
2016-02-18T06:40:33.782Z,0
2016-02-18T06:41:20.769Z,0
2016-02-18T06:42:39.365Z,0
2016-02-18T06:43:14.399Z,0
2016-02-18T06:44:08.073Z,0
2016-02-18T06:45:08.092Z,0
2016-02-18T06:46:14.359Z,5
2016-02-18T06:47:20.832Z,5
2016-02-18T06:48:22.256Z,5
2016-02-18T06:49:27.337Z,5
2016-02-18T06:51:36.420Z,5
2016-02-18T06:51:48.998Z,5
2016-02-18T06:53:51.628Z,5
2016-02-18T06:54:23.428Z,5
2016-02-18T06:55:04.241Z,5
2016-02-18T06:57:06.858Z,5
2016-02-18T06:57:57.983Z,10
2016-02-18T06:59:16.411Z,10
2016-02-18T06:59:57.708Z,10
2016-02-18T07:00:29.163Z,10
2016-02-18T07:02:31.621Z,10
2016-02-18T07:03:09.969Z,10
2016-02-18T07:03:44.188Z,10
2016-02-18T07:05:47.489Z,10
2016-02-18T07:06:25.726Z,10
2016-02-18T07:07:00.179Z,10
2016-02-18T07:09:02.716Z,15
2016-02-18T07:09:15.281Z,15
2016-02-18T07:10:15.315Z,15
2016-02-18T07:11:15.302Z,15
2016-02-18T07:12:15.352Z,15
2016-02-18T07:13:21.651Z,15
2016-02-18T07:14:28.092Z,15
2016-02-18T07:15:28.079Z,20
2016-02-18T07:17:31.662Z,20
2016-02-18T07:17:44.225Z,20
2016-02-18T07:19:50.558Z,20
2016-02-18T07:20:50.545Z,25
2016-02-18T07:21:57.063Z,25
2016-02-18T07:24:06.619Z,25
2016-02-18T07:26:22.436Z,25
2016-02-18T07:29:08.944Z,30
2016-02-18T07:29:37.663Z,30
2016-02-18T07:30:37.635Z,30
2016-02-18T07:31:50.418Z,35
2016-02-18T07:32:37.765Z,35
2016-02-18T07:33:56.877Z,35
2016-02-18T07:34:38.348Z,35
2016-02-18T07:37:12.965Z,40
2016-02-18T07:39:19.112Z,45
2016-02-18T07:41:22.211Z,45
2016-02-18T07:42:59.979Z,45
2016-02-18T07:43:31.857Z,50
2016-02-18T07:44:31.860Z,50
2016-02-18T07:45:13.190Z,50
2016-02-18T07:47:15.273Z,55
2016-02-18T07:47:27.914Z,55
2016-02-18T07:48:27.933Z,60
2016-02-18T07:49:34.171Z,60
2016-02-18T07:50:40.626Z,60
2016-02-18T07:51:47.192Z,60
2016-02-18T07:52:46.975Z,60
2016-02-18T07:54:24.917Z,65
2016-02-18T07:55:03.199Z,65
2016-02-18T07:56:28.063Z,65
2016-02-18T07:57:43.254Z,65
2016-02-18T07:58:15.039Z,65
2016-02-18T07:58:55.851Z,65
2016-02-18T08:00:02.103Z,70
2016-02-18T08:01:08.639Z,70
2016-02-18T08:02:02.124Z,70
2016-02-18T08:04:05.691Z,75
2016-02-18T08:04:49.647Z,75
2016-02-18T08:05:18.276Z,75
2016-02-18T08:06:18.324Z,75
2016-02-18T08:07:19.718Z,75
2016-02-18T08:08:18.316Z,75
2016-02-18T08:09:31.052Z,80
2016-02-18T08:10:24.602Z,80
2016-02-18T08:11:37.573Z,80
2016-02-18T08:12:30.951Z,75
2016-02-18T08:14:34.659Z,75
2016-02-18T08:14:47.331Z,75
2016-02-18T08:15:47.256Z,75
2016-02-18T08:16:47.274Z,75
2016-02-18T08:17:47.307Z,80
2016-02-18T08:18:53.545Z,80
2016-02-18T08:19:47.267Z,80
2016-02-18T08:21:00.051Z,80
2016-02-18T08:22:00.068Z,85
2016-02-18T08:23:13.028Z,85
2016-02-18T08:24:00.403Z,85
2016-02-18T08:26:09.175Z,85
2016-02-18T08:26:34.488Z,85
2016-02-18T08:27:21.725Z,90
2016-02-18T08:28:41.181Z,95
2016-02-18T08:29:28.636Z,100
2016-02-18T08:30:53.093Z,110
2016-02-18T08:31:23.861Z,115
2016-02-18T08:32:53.114Z,120
2016-02-18T08:33:34.773Z,125
2016-02-18T08:34:21.869Z,125
2016-02-18T08:36:31.438Z,125
2016-02-18T08:37:31.440Z,130
2016-02-18T08:38:37.739Z,130
2016-02-18T08:39:31.726Z,135
2016-02-18T08:40:50.744Z,140
2016-02-18T08:41:32.951Z,135
2016-02-18T08:43:41.346Z,130
2016-02-18T08:45:38.274Z,130
2016-02-18T08:46:16.527Z,130
2016-02-18T08:47:41.388Z,130
2016-02-18T08:49:29.222Z,125
2016-02-18T08:50:03.565Z,120
2016-02-18T08:51:16.306Z,120
2016-02-18T08:52:16.433Z,130
2016-02-18T08:53:22.717Z,130
2016-02-18T08:54:54.219Z,125
2016-02-18T08:55:38.159Z,130
2016-02-18T08:56:06.831Z,130
2016-02-18T08:57:06.929Z,130
2016-02-18T08:58:13.700Z,130
2016-02-18T08:59:08.325Z,130
2016-02-18T09:01:09.939Z,130
2016-02-18T09:02:29.164Z,130
2016-02-18T09:03:10.633Z,130
2016-02-18T09:05:12.655Z,125
2016-02-18T09:05:50.921Z,125
2016-02-18T09:06:25.222Z,125
2016-02-18T09:08:27.883Z,120
2016-02-18T09:09:06.102Z,120
2016-02-18T09:09:40.480Z,120
2016-02-18T09:11:40.531Z,120
2016-02-18T09:12:40.534Z,115
2016-02-18T09:13:41.927Z,115
2016-02-18T09:14:46.821Z,115
2016-02-18T09:15:59.760Z,115
2016-02-18T09:16:53.529Z,110
2016-02-18T09:18:06.235Z,110
2016-02-18T09:19:31.178Z,105
2016-02-18T09:20:14.962Z,105
2016-02-18T09:20:56.509Z,105
2016-02-18T09:22:59.139Z,105
2016-02-18T09:23:37.392Z,110
2016-02-18T09:24:11.845Z,110
2016-02-18T09:26:14.353Z,110
2016-02-18T09:26:39.697Z,110
2016-02-18T09:27:27.011Z,110
2016-02-18T09:28:39.671Z,105
2016-02-18T09:29:26.970Z,105
2016-02-18T09:30:46.176Z,105
2016-02-18T09:31:27.664Z,110
2016-02-18T09:33:24.028Z,105
2016-02-18T09:34:27.140Z,105
2016-02-18T09:35:05.547Z,105
2016-02-18T09:35:39.736Z,105
2016-02-18T09:36:40.395Z,105
2016-02-18T09:37:40.554Z,100
2016-02-18T09:38:52.588Z,95
2016-02-18T09:39:39.794Z,95
2016-02-18T09:41:36.800Z,90
2016-02-18T09:42:08.566Z,90
2016-02-18T09:42:55.693Z,90
2016-02-18T09:43:49.414Z,90
2016-02-18T09:45:02.261Z,90
2016-02-18T09:45:49.419Z,90
2016-02-18T09:47:08.641Z,90
2016-02-18T09:47:49.487Z,90
2016-02-18T09:49:46.461Z,90
2016-02-18T09:50:14.808Z,90
2016-02-18T09:51:18.280Z,90
2016-02-18T09:53:27.379Z,90
2016-02-18T09:53:40.035Z,90
2016-02-18T09:54:39.991Z,90
2016-02-18T09:55:39.993Z,90
2016-02-18T09:56:39.996Z,90
2016-02-18T09:57:52.748Z,90
2016-02-18T09:58:40.642Z,95
2016-02-18T10:00:49.553Z,95
2016-02-18T10:02:02.432Z,95
2016-02-18T10:02:51.184Z,100
2016-02-18T10:04:59.330Z,100
2016-02-18T10:05:43.192Z,105
2016-02-18T10:06:11.911Z,105
2016-02-18T10:07:11.897Z,105
2016-02-18T10:08:24.700Z,110
2016-02-18T10:09:12.560Z,110
2016-02-18T10:11:18.708Z,110
2016-02-18T10:12:28.430Z,110
2016-02-18T10:13:28.433Z,110
2016-02-18T10:14:15.826Z,110
2016-02-18T10:15:28.875Z,110
2016-02-18T10:16:15.831Z,115
2016-02-18T10:18:44.321Z,115
2016-02-18T10:20:15.905Z,110
2016-02-18T10:21:16.407Z,105
2016-02-18T10:22:19.534Z,100
2016-02-18T10:23:17.085Z,100
2016-02-18T10:24:22.634Z,105
2016-02-18T10:25:00.868Z,110
2016-02-18T10:25:35.231Z,110
2016-02-18T10:27:37.861Z,115
2016-02-18T10:27:50.407Z,115
2016-02-18T10:28:50.567Z,120
2016-02-18T10:29:56.709Z,115
2016-02-18T10:31:03.290Z,115
2016-02-18T10:32:03.075Z,115
2016-02-18T10:33:16.189Z,115
2016-02-18T10:34:40.520Z,120
2016-02-18T10:35:18.883Z,125
2016-02-18T10:35:53.086Z,130
2016-02-18T10:37:55.778Z,130
2016-02-18T10:38:08.544Z,130
2016-02-18T10:39:08.437Z,135
2016-02-18T10:40:14.861Z,135
2016-02-18T10:41:14.786Z,140
2016-02-18T10:42:27.636Z,140
2016-02-18T10:43:27.638Z,140
2016-02-18T10:44:27.641Z,135
2016-02-18T10:46:05.644Z,145
2016-02-18T10:46:43.896Z,140
2016-02-18T10:47:37.461Z,140
2016-02-18T10:49:15.229Z,140
2016-02-18T10:49:27.810Z,140
2016-02-18T10:50:47.001Z,140
2016-02-18T10:51:27.862Z,140
2016-02-18T10:53:24.884Z,135
2016-02-18T10:53:37.446Z,135
2016-02-18T10:55:08.777Z,135
2016-02-18T10:55:43.812Z,135
2016-02-18T10:56:37.501Z,140
2016-02-18T10:57:56.723Z,150
2016-02-18T10:58:37.537Z,160
2016-02-18T11:00:34.527Z,165
2016-02-18T11:00:47.230Z,165
2016-02-18T11:01:47.234Z,165
2016-02-18T11:02:59.877Z,170
2016-02-18T11:03:47.958Z,170
2016-02-18T11:05:12.851Z,170
2016-02-18T11:05:47.776Z,170
2016-02-18T11:07:44.156Z,170
2016-02-18T11:07:56.750Z,165
2016-02-18T11:09:53.718Z,155
2016-02-18T11:10:09.328Z,150
2016-02-18T11:12:03.340Z,145
2016-02-18T11:12:15.918Z,145
2016-02-18T11:14:18.577Z,125
2016-02-18T11:14:50.358Z,125
2016-02-18T11:15:31.153Z,125
2016-02-18T11:17:40.728Z,120
2016-02-18T11:20:09.573Z,100
2016-02-18T11:21:35.857Z,100
2016-02-18T11:22:45.702Z,105
2016-02-18T11:23:42.344Z,110
2016-02-18T11:24:17.658Z,115
2016-02-18T11:27:04.007Z,105
2016-02-18T11:28:04.039Z,100
2016-02-18T11:29:16.761Z,100
2016-02-18T11:30:16.778Z,100
2016-02-18T11:32:01.033Z,105
2016-02-18T11:33:23.320Z,110
2016-02-18T11:33:35.898Z,110
2016-02-18T11:35:38.512Z,120
2016-02-18T11:36:16.778Z,125
2016-02-18T11:36:51.123Z,125
2016-02-18T11:38:53.723Z,125
2016-02-18T11:39:31.961Z,125
2016-02-18T11:40:19.042Z,125
2016-02-18T11:42:08.950Z,130
2016-02-18T11:42:34.250Z,130
2016-02-18T11:44:12.096Z,125
2016-02-18T11:44:50.333Z,120
2016-02-18T11:46:46.510Z,120
2016-02-18T11:47:24.764Z,120
2016-02-18T11:47:59.123Z,115
2016-02-18T11:49:56.127Z,120
2016-02-18T11:50:08.690Z,120
2016-02-18T11:52:11.352Z,135
2016-02-18T11:52:23.933Z,135
2016-02-18T11:53:23.982Z,135
2016-02-18T11:54:36.704Z,130
2016-02-18T11:55:36.785Z,130
2016-02-18T11:56:42.974Z,130
2016-02-18T11:57:43.446Z,135
2016-02-18T11:58:49.480Z,140
2016-02-18T12:01:36.816Z,140
2016-02-18T12:02:36.803Z,140
2016-02-18T12:03:43.321Z,135
2016-02-18T12:04:49.621Z,130
2016-02-18T12:06:46.612Z,140
2016-02-18T12:07:37.614Z,150
2016-02-18T12:08:30.523Z,160
2016-02-18T12:09:59.244Z,180
2016-02-18T12:11:06.153Z,180
2016-02-18T12:12:00.672Z,175
2016-02-18T12:13:59.286Z,180
2016-02-18T12:14:13.333Z,170
2016-02-18T12:15:12.008Z,170
2016-02-18T12:16:24.622Z,165
2016-02-18T12:17:18.185Z,170
2016-02-18T12:18:37.644Z,185
2016-02-18T12:20:02.474Z,195
2016-02-18T12:21:31.136Z,190
2016-02-18T12:21:43.792Z,190
2016-02-18T12:22:43.826Z,195
2016-02-18T12:23:49.969Z,195
2016-02-18T12:24:56.596Z,200
2016-02-18T12:25:50.163Z,200
2016-02-18T12:27:03.102Z,195
2016-02-18T12:27:50.230Z,205
2016-02-18T12:29:59.251Z,230
2016-02-18T12:30:11.860Z,225
2016-02-18T12:31:11.832Z,225
2016-02-18T12:32:11.865Z,225
2016-02-18T12:33:11.915Z,225
2016-02-18T12:34:24.734Z,210
2016-02-18T12:35:24.674Z,190
2016-02-18T12:36:37.582Z,175
2016-02-18T12:37:24.679Z,165
2016-02-18T12:39:14.572Z,150
2016-02-18T12:39:46.262Z,150
2016-02-18T12:41:25.737Z,155
2016-02-18T12:41:57.549Z,160
2016-02-18T12:42:38.333Z,170
2016-02-18T12:44:40.979Z,190
2016-02-18T12:45:12.870Z,200
2016-02-18T12:46:12.764Z,220
2016-02-18T12:47:19.266Z,240
2016-02-18T12:48:13.019Z,255
2016-02-18T12:50:15.461Z,255
2016-02-18T12:50:34.385Z,250
2016-02-18T12:52:18.607Z,235
2016-02-18T12:52:43.970Z,225
2016-02-18T12:53:31.206Z,235
2016-02-18T12:54:43.959Z,245
2016-02-18T12:55:32.649Z,250
2016-02-18T12:58:25.485Z,280
2016-02-18T12:58:38.126Z,280
2016-02-18T13:00:53.366Z,290
2016-02-18T13:03:22.215Z,280
2016-02-18T13:03:53.968Z,275
2016-02-18T13:05:05.815Z,270
2016-02-18T13:06:37.429Z,255
2016-02-18T13:07:09.210Z,255
2016-02-18T13:07:50.025Z,250
2016-02-18T13:08:56.356Z,255
2016-02-18T13:10:02.828Z,270
2016-02-18T13:11:40.568Z,275
2016-02-18T13:12:12.224Z,280
2016-02-18T13:13:12.398Z,290
2016-02-18T13:13:53.651Z,290
2016-02-18T13:15:57.312Z,285
2016-02-18T13:16:29.096Z,285
2016-02-18T13:17:09.908Z,295
2016-02-18T13:18:09.958Z,280
2016-02-18T13:19:09.961Z,275
2016-02-18T13:20:09.980Z,270
2016-02-18T13:21:09.998Z,270
2016-02-18T13:22:16.250Z,270
2016-02-18T13:23:11.753Z,275
2016-02-18T13:25:13.119Z,270
2016-02-18T13:27:16.388Z,250
2016-02-18T13:27:29.110Z,245
2016-02-18T13:28:41.754Z,240
2016-02-18T13:29:41.788Z,235
2016-02-18T13:30:48.227Z,235
2016-02-18T13:32:51.685Z,220
2016-02-18T13:33:35.610Z,220
2016-02-18T13:35:06.926Z,210
2016-02-18T13:35:32.226Z,210
2016-02-18T13:36:19.710Z,205
2016-02-18T13:38:55.124Z,220
2016-02-18T13:40:26.129Z,230
2016-02-18T13:41:47.664Z,235
2016-02-18T13:42:19.601Z,235
2016-02-18T13:43:00.401Z,235
2016-02-18T13:45:03.547Z,215
2016-02-18T13:45:16.109Z,215
2016-02-18T13:46:16.002Z,205
2016-02-18T13:47:28.976Z,205
2016-02-18T13:48:28.761Z,205
2016-02-18T13:49:35.231Z,210
2016-02-18T13:50:35.250Z,200
2016-02-18T13:51:47.394Z,185
2016-02-18T13:52:41.771Z,185
2016-02-18T13:53:47.446Z,185
2016-02-18T13:55:18.886Z,180
2016-02-18T13:55:57.170Z,175
2016-02-18T13:56:31.625Z,175
2016-02-18T13:58:34.131Z,175
2016-02-18T13:58:46.725Z,175
2016-02-18T13:59:46.758Z,175
2016-02-18T14:00:47.402Z,175
2016-02-18T14:01:53.123Z,175
2016-02-18T14:02:59.533Z,175
2016-02-18T14:03:59.519Z,175
2016-02-18T14:05:12.573Z,165
2016-02-18T14:05:46.889Z,165
2016-02-18T14:07:38.800Z,165
2016-02-18T14:07:51.394Z,165
2016-02-18T14:09:41.899Z,165
2016-02-18T14:09:56.117Z,165
2016-02-18T14:12:00.341Z,175
2016-02-18T14:12:13.013Z,180
2016-02-18T14:13:12.955Z,185
2016-02-18T14:14:13.582Z,190
2016-02-18T14:15:12.960Z,195
2016-02-18T14:16:32.199Z,195
2016-02-18T14:17:13.011Z,195
2016-02-18T14:18:38.782Z,195
2016-02-18T14:19:13.079Z,190
2016-02-18T14:21:04.788Z,185
2016-02-18T14:21:17.397Z,190
2016-02-18T14:22:17.416Z,190
2016-02-18T14:23:30.421Z,190
2016-02-18T14:24:17.515Z,190
2016-02-18T14:25:43.130Z,185
2016-02-18T14:26:18.896Z,185
2016-02-18T14:27:43.276Z,185
2016-02-18T14:28:17.745Z,185
2016-02-18T14:29:18.248Z,180
2016-02-18T14:30:30.487Z,180
2016-02-18T14:31:17.518Z,180
2016-02-18T14:33:14.664Z,170
2016-02-18T14:34:36.857Z,170
2016-02-18T14:36:02.547Z,165
2016-02-18T14:36:43.175Z,165
2016-02-18T14:38:39.509Z,160
2016-02-18T14:39:17.775Z,160
2016-02-18T14:40:11.323Z,160
2016-02-18T14:41:48.939Z,160
2016-02-18T14:42:01.876Z,155
2016-02-18T14:43:01.363Z,155
2016-02-18T14:44:01.568Z,155
2016-02-18T14:45:14.291Z,150
2016-02-18T14:46:01.902Z,150
2016-02-18T14:47:20.827Z,150
2016-02-18T14:48:02.204Z,150
2016-02-18T14:49:01.738Z,150
2016-02-18T14:50:01.866Z,150
2016-02-18T14:51:03.196Z,150
2016-02-18T14:52:01.777Z,150
2016-02-18T14:53:01.733Z,150
2016-02-18T14:54:14.455Z,155
2016-02-18T14:55:14.473Z,155
2016-02-18T14:56:01.757Z,155
2016-02-18T14:57:20.947Z,155
2016-02-18T14:58:01.827Z,155
2016-02-18T14:59:58.768Z,150
2016-02-18T15:00:30.552Z,150
2016-02-18T15:01:37.071Z,150
2016-02-18T15:02:11.368Z,150
2016-02-18T15:03:11.448Z,150
2016-02-18T15:04:17.718Z,150
2016-02-18T15:05:11.532Z,150
2016-02-18T15:06:24.379Z,145
2016-02-18T15:07:11.554Z,140
2016-02-18T15:09:14.746Z,135
2016-02-18T15:10:56.220Z,125
2016-02-18T15:13:04.992Z,120
2016-02-18T15:13:46.462Z,115
2016-02-18T15:14:33.637Z,115
2016-02-18T15:15:33.687Z,110
2016-02-18T15:16:33.736Z,110
2016-02-18T15:17:35.145Z,105
2016-02-18T15:18:46.476Z,105
2016-02-18T15:19:47.073Z,100
2016-02-18T15:21:30.859Z,100
2016-02-18T15:22:40.440Z,100
2016-02-18T15:24:18.708Z,95
2016-02-18T15:24:53.258Z,95
2016-02-18T15:26:55.794Z,95
2016-02-18T15:27:08.404Z,90
2016-02-18T15:28:08.391Z,95
2016-02-18T15:29:08.565Z,90
2016-02-18T15:30:08.491Z,90
2016-02-18T15:31:08.430Z,90
2016-02-18T15:32:08.511Z,90
2016-02-18T15:33:08.499Z,90
2016-02-18T15:34:08.501Z,90
2016-02-18T15:35:21.254Z,85
2016-02-18T15:36:21.287Z,85
2016-02-18T15:37:27.744Z,85
2016-02-18T15:38:21.355Z,85
2016-02-18T15:41:34.366Z,80
2016-02-18T15:44:20.887Z,75
2016-02-18T15:44:52.656Z,75
2016-02-18T15:45:33.501Z,75
2016-02-18T15:47:31.898Z,75
2016-02-18T15:48:10.164Z,70
2016-02-18T15:48:44.479Z,70